sensor_id;sensor_type;location;lat;lon;timestamp;temperature;humidity
21807;DHT22;11065;50.786;7.840;2022-09-02T00:01:10;20.50;33.70
21807;DHT22;11065;50.786;7.840;2022-09-02T00:03:38;20.50;33.80
21807;DHT22;11065;50.786;7.840;2022-09-02T00:06:05;20.40;33.80
21807;DHT22;11065;50.786;7.840;2022-09-02T00:08:32;20.30;33.80
21807;DHT22;11065;50.786;7.840;2022-09-02T00:11:00;20.30;33.90
21807;DHT22;11065;50.786;7.840;2022-09-02T00:13:29;20.30;34.00
21807;DHT22;11065;50.786;7.840;2022-09-02T00:15:56;20.20;34.00
21807;DHT22;11065;50.786;7.840;2022-09-02T00:18:23;20.20;34.00
21807;DHT22;11065;50.786;7.840;2022-09-02T00:20:51;20.20;34.10
21807;DHT22;11065;50.786;7.840;2022-09-02T00:23:18;20.10;34.20
21807;DHT22;11065;50.786;7.840;2022-09-02T00:25:45;20.10;34.30
21807;DHT22;11065;50.786;7.840;2022-09-02T00:28:14;20.00;34.30
21807;DHT22;11065;50.786;7.840;2022-09-02T00:30:43;20.00;34.30
21807;DHT22;11065;50.786;7.840;2022-09-02T00:33:10;20.00;34.40
21807;DHT22;11065;50.786;7.840;2022-09-02T00:35:37;19.90;34.40
21807;DHT22;11065;50.786;7.840;2022-09-02T00:38:05;19.90;34.50
21807;DHT22;11065;50.786;7.840;2022-09-02T00:40:32;19.80;34.50
21807;DHT22;11065;50.786;7.840;2022-09-02T00:43:00;19.80;34.60
21807;DHT22;11065;50.786;7.840;2022-09-02T00:45:27;19.70;34.60
21807;DHT22;11065;50.786;7.840;2022-09-02T00:47:54;19.70;34.70
21807;DHT22;11065;50.786;7.840;2022-09-02T00:50:26;19.60;34.70
21807;DHT22;11065;50.786;7.840;2022-09-02T00:52:59;19.60;34.90
21807;DHT22;11065;50.786;7.840;2022-09-02T00:55:38;19.60;35.00
21807;DHT22;11065;50.786;7.840;2022-09-02T00:58:21;19.60;35.10
21807;DHT22;11065;50.786;7.840;2022-09-02T01:00:52;19.50;35.10
21807;DHT22;11065;50.786;7.840;2022-09-02T01:03:24;19.50;35.00
21807;DHT22;11065;50.786;7.840;2022-09-02T01:05:53;19.40;35.10
21807;DHT22;11065;50.786;7.840;2022-09-02T01:08:26;19.40;35.10
21807;DHT22;11065;50.786;7.840;2022-09-02T01:10:56;19.40;35.70
21807;DHT22;11065;50.786;7.840;2022-09-02T01:13:25;19.30;35.10
21807;DHT22;11065;50.786;7.840;2022-09-02T01:16:19;19.30;35.20
21807;DHT22;11065;50.786;7.840;2022-09-02T01:18:50;19.30;35.60
21807;DHT22;11065;50.786;7.840;2022-09-02T01:21:18;19.30;35.30
21807;DHT22;11065;50.786;7.840;2022-09-02T01:23:46;19.20;35.30
21807;DHT22;11065;50.786;7.840;2022-09-02T01:26:13;19.20;35.30
21807;DHT22;11065;50.786;7.840;2022-09-02T01:28:40;19.20;35.40
21807;DHT22;11065;50.786;7.840;2022-09-02T01:31:08;19.20;35.50
21807;DHT22;11065;50.786;7.840;2022-09-02T01:33:35;19.10;35.50
21807;DHT22;11065;50.786;7.840;2022-09-02T01:36:02;19.10;35.60
21807;DHT22;11065;50.786;7.840;2022-09-02T01:38:30;19.10;35.60
21807;DHT22;11065;50.786;7.840;2022-09-02T01:40:57;19.00;35.70
21807;DHT22;11065;50.786;7.840;2022-09-02T01:43:26;19.00;35.70
21807;DHT22;11065;50.786;7.840;2022-09-02T01:45:56;19.00;35.80
21807;DHT22;11065;50.786;7.840;2022-09-02T01:48:25;18.90;35.80
21807;DHT22;11065;50.786;7.840;2022-09-02T01:50:57;18.90;35.80
21807;DHT22;11065;50.786;7.840;2022-09-02T01:53:24;18.90;35.90
21807;DHT22;11065;50.786;7.840;2022-09-02T01:55:52;18.90;35.80
21807;DHT22;11065;50.786;7.840;2022-09-02T01:58:20;18.80;35.90
21807;DHT22;11065;50.786;7.840;2022-09-02T02:00:48;18.80;36.00
21807;DHT22;11065;50.786;7.840;2022-09-02T02:03:16;18.80;36.00
21807;DHT22;11065;50.786;7.840;2022-09-02T02:05:43;18.80;36.00
21807;DHT22;11065;50.786;7.840;2022-09-02T02:08:13;18.70;36.10
21807;DHT22;11065;50.786;7.840;2022-09-02T02:10:41;18.80;36.10
21807;DHT22;11065;50.786;7.840;2022-09-02T02:13:11;18.70;36.10
21807;DHT22;11065;50.786;7.840;2022-09-02T02:15:40;18.70;36.20
21807;DHT22;11065;50.786;7.840;2022-09-02T02:18:10;18.60;36.10
21807;DHT22;11065;50.786;7.840;2022-09-02T02:20:37;18.60;36.20
21807;DHT22;11065;50.786;7.840;2022-09-02T02:23:05;18.60;36.30
21807;DHT22;11065;50.786;7.840;2022-09-02T02:25:32;18.60;36.40
21807;DHT22;11065;50.786;7.840;2022-09-02T02:27:59;18.50;36.30
21807;DHT22;11065;50.786;7.840;2022-09-02T02:30:28;18.50;36.40
21807;DHT22;11065;50.786;7.840;2022-09-02T02:32:56;18.50;36.40
21807;DHT22;11065;50.786;7.840;2022-09-02T02:35:23;18.50;36.50
21807;DHT22;11065;50.786;7.840;2022-09-02T02:37:51;18.50;36.50
21807;DHT22;11065;50.786;7.840;2022-09-02T02:40:20;18.50;36.60
21807;DHT22;11065;50.786;7.840;2022-09-02T02:42:48;18.40;36.60
21807;DHT22;11065;50.786;7.840;2022-09-02T02:45:16;18.40;36.70
21807;DHT22;11065;50.786;7.840;2022-09-02T02:47:44;18.30;36.60
21807;DHT22;11065;50.786;7.840;2022-09-02T02:50:17;18.30;36.70
21807;DHT22;11065;50.786;7.840;2022-09-02T02:52:46;18.30;36.80
21807;DHT22;11065;50.786;7.840;2022-09-02T02:55:16;18.20;36.80
21807;DHT22;11065;50.786;7.840;2022-09-02T02:57:43;18.20;36.80
21807;DHT22;11065;50.786;7.840;2022-09-02T03:00:20;18.10;36.80
21807;DHT22;11065;50.786;7.840;2022-09-02T03:02:48;18.10;37.00
21807;DHT22;11065;50.786;7.840;2022-09-02T03:05:18;18.00;37.00
21807;DHT22;11065;50.786;7.840;2022-09-02T03:07:46;18.00;37.00
21807;DHT22;11065;50.786;7.840;2022-09-02T03:10:14;17.90;37.10
21807;DHT22;11065;50.786;7.840;2022-09-02T03:12:42;17.90;37.20
21807;DHT22;11065;50.786;7.840;2022-09-02T03:15:17;17.80;37.20
21807;DHT22;11065;50.786;7.840;2022-09-02T03:17:46;17.80;37.30
21807;DHT22;11065;50.786;7.840;2022-09-02T03:20:14;17.70;37.30
21807;DHT22;11065;50.786;7.840;2022-09-02T03:22:46;17.70;37.40
21807;DHT22;11065;50.786;7.840;2022-09-02T03:25:17;17.60;37.50
21807;DHT22;11065;50.786;7.840;2022-09-02T03:27:46;17.60;37.50
21807;DHT22;11065;50.786;7.840;2022-09-02T03:30:17;17.60;37.60
21807;DHT22;11065;50.786;7.840;2022-09-02T03:32:44;17.60;37.70
21807;DHT22;11065;50.786;7.840;2022-09-02T03:35:14;17.50;37.70
21807;DHT22;11065;50.786;7.840;2022-09-02T03:37:41;17.50;37.80
21807;DHT22;11065;50.786;7.840;2022-09-02T03:40:11;17.50;37.80
21807;DHT22;11065;50.786;7.840;2022-09-02T03:42:39;17.40;37.90
21807;DHT22;11065;50.786;7.840;2022-09-02T03:45:09;17.40;37.90
21807;DHT22;11065;50.786;7.840;2022-09-02T03:47:37;17.40;38.00
21807;DHT22;11065;50.786;7.840;2022-09-02T03:50:10;17.30;38.00
21807;DHT22;11065;50.786;7.840;2022-09-02T03:52:37;17.30;38.00
21807;DHT22;11065;50.786;7.840;2022-09-02T03:55:04;17.30;38.10
21807;DHT22;11065;50.786;7.840;2022-09-02T03:57:34;17.20;38.20
21807;DHT22;11065;50.786;7.840;2022-09-02T04:00:05;17.20;38.30
21807;DHT22;11065;50.786;7.840;2022-09-02T04:02:39;17.20;38.40
21807;DHT22;11065;50.786;7.840;2022-09-02T04:05:10;17.10;38.30
21807;DHT22;11065;50.786;7.840;2022-09-02T04:07:43;17.10;38.40
21807;DHT22;11065;50.786;7.840;2022-09-02T04:10:14;17.00;38.40
21807;DHT22;11065;50.786;7.840;2022-09-02T04:12:41;17.00;38.50
21807;DHT22;11065;50.786;7.840;2022-09-02T04:15:10;16.90;38.60
21807;DHT22;11065;50.786;7.840;2022-09-02T04:17:40;16.90;38.70
21807;DHT22;11065;50.786;7.840;2022-09-02T04:20:11;16.90;38.80
21807;DHT22;11065;50.786;7.840;2022-09-02T04:22:39;16.80;38.80
21807;DHT22;11065;50.786;7.840;2022-09-02T04:25:07;16.80;38.80
21807;DHT22;11065;50.786;7.840;2022-09-02T04:27:36;16.80;38.90
21807;DHT22;11065;50.786;7.840;2022-09-02T04:30:05;16.70;39.00
21807;DHT22;11065;50.786;7.840;2022-09-02T04:32:35;16.70;39.00
21807;DHT22;11065;50.786;7.840;2022-09-02T04:35:07;16.70;39.10
21807;DHT22;11065;50.786;7.840;2022-09-02T04:37:35;16.60;39.10
21807;DHT22;11065;50.786;7.840;2022-09-02T04:40:03;16.60;39.20
21807;DHT22;11065;50.786;7.840;2022-09-02T04:42:30;16.60;39.30
21807;DHT22;11065;50.786;7.840;2022-09-02T04:44:57;16.60;39.40
21807;DHT22;11065;50.786;7.840;2022-09-02T04:47:26;16.50;39.40
21807;DHT22;11065;50.786;7.840;2022-09-02T04:49:54;16.60;39.40
21807;DHT22;11065;50.786;7.840;2022-09-02T04:52:21;16.50;39.50
21807;DHT22;11065;50.786;7.840;2022-09-02T04:54:49;16.50;39.50
21807;DHT22;11065;50.786;7.840;2022-09-02T04:57:16;16.50;39.60
21807;DHT22;11065;50.786;7.840;2022-09-02T04:59:43;16.40;39.60
21807;DHT22;11065;50.786;7.840;2022-09-02T05:02:10;16.40;39.70
21807;DHT22;11065;50.786;7.840;2022-09-02T05:04:38;16.40;39.70
21807;DHT22;11065;50.786;7.840;2022-09-02T05:07:12;16.40;39.70
21807;DHT22;11065;50.786;7.840;2022-09-02T05:09:43;16.40;39.80
21807;DHT22;11065;50.786;7.840;2022-09-02T05:12:11;16.40;39.90
21807;DHT22;11065;50.786;7.840;2022-09-02T05:14:43;16.40;40.00
21807;DHT22;11065;50.786;7.840;2022-09-02T05:17:10;16.40;40.00
21807;DHT22;11065;50.786;7.840;2022-09-02T05:19:41;16.40;40.10
21807;DHT22;11065;50.786;7.840;2022-09-02T05:22:08;16.40;40.10
21807;DHT22;11065;50.786;7.840;2022-09-02T05:24:39;16.40;40.20
21807;DHT22;11065;50.786;7.840;2022-09-02T05:27:10;16.40;40.30
21807;DHT22;11065;50.786;7.840;2022-09-02T05:29:37;16.40;40.30
21807;DHT22;11065;50.786;7.840;2022-09-02T05:32:06;16.40;40.40
21807;DHT22;11065;50.786;7.840;2022-09-02T05:34:36;16.50;40.40
21807;DHT22;11065;50.786;7.840;2022-09-02T05:37:03;16.50;40.50
21807;DHT22;11065;50.786;7.840;2022-09-02T05:39:34;16.40;40.40
21807;DHT22;11065;50.786;7.840;2022-09-02T05:42:03;16.50;40.50
21807;DHT22;11065;50.786;7.840;2022-09-02T05:44:32;16.50;40.50
21807;DHT22;11065;50.786;7.840;2022-09-02T05:47:01;16.60;40.60
21807;DHT22;11065;50.786;7.840;2022-09-02T05:49:28;16.60;40.60
21807;DHT22;11065;50.786;7.840;2022-09-02T05:51:59;16.60;40.60
21807;DHT22;11065;50.786;7.840;2022-09-02T05:54:38;16.60;40.60
21807;DHT22;11065;50.786;7.840;2022-09-02T05:57:12;16.70;40.70
21807;DHT22;11065;50.786;7.840;2022-09-02T05:59:57;16.70;40.80
21807;DHT22;11065;50.786;7.840;2022-09-02T06:02:39;16.80;40.80
21807;DHT22;11065;50.786;7.840;2022-09-02T06:05:08;16.80;40.80
21807;DHT22;11065;50.786;7.840;2022-09-02T06:07:42;16.90;40.90
21807;DHT22;11065;50.786;7.840;2022-09-02T06:10:10;17.00;40.90
21807;DHT22;11065;50.786;7.840;2022-09-02T06:12:36;17.10;41.00
21807;DHT22;11065;50.786;7.840;2022-09-02T06:15:09;17.10;40.90
21807;DHT22;11065;50.786;7.840;2022-09-02T06:17:38;17.20;41.00
21807;DHT22;11065;50.786;7.840;2022-09-02T06:20:06;17.30;41.00
21807;DHT22;11065;50.786;7.840;2022-09-02T06:22:32;17.40;41.10
21807;DHT22;11065;50.786;7.840;2022-09-02T06:24:59;17.50;41.10
21807;DHT22;11065;50.786;7.840;2022-09-02T06:27:27;17.50;41.00
21807;DHT22;11065;50.786;7.840;2022-09-02T06:29:55;17.60;41.00
21807;DHT22;11065;50.786;7.840;2022-09-02T06:32:24;17.70;41.00
21807;DHT22;11065;50.786;7.840;2022-09-02T06:34:56;17.70;40.90
21807;DHT22;11065;50.786;7.840;2022-09-02T06:37:25;17.90;41.10
21807;DHT22;11065;50.786;7.840;2022-09-02T06:39:53;17.90;41.10
21807;DHT22;11065;50.786;7.840;2022-09-02T06:42:23;18.00;41.10
21807;DHT22;11065;50.786;7.840;2022-09-02T06:45:06;18.10;41.10
21807;DHT22;11065;50.786;7.840;2022-09-02T06:47:35;18.20;41.00
21807;DHT22;11065;50.786;7.840;2022-09-02T06:50:02;18.30;41.00
21807;DHT22;11065;50.786;7.840;2022-09-02T06:52:30;18.40;41.10
21807;DHT22;11065;50.786;7.840;2022-09-02T06:54:59;18.50;41.00
21807;DHT22;11065;50.786;7.840;2022-09-02T06:57:26;18.60;40.90
21807;DHT22;11065;50.786;7.840;2022-09-02T07:00:05;18.70;40.90
21807;DHT22;11065;50.786;7.840;2022-09-02T07:02:33;18.80;40.90
21807;DHT22;11065;50.786;7.840;2022-09-02T07:05:02;19.00;40.90
21807;DHT22;11065;50.786;7.840;2022-09-02T07:07:42;19.10;40.80
21807;DHT22;11065;50.786;7.840;2022-09-02T07:10:13;19.20;40.70
21807;DHT22;11065;50.786;7.840;2022-09-02T07:12:45;19.40;40.80
21807;DHT22;11065;50.786;7.840;2022-09-02T07:15:15;19.50;40.60
21807;DHT22;11065;50.786;7.840;2022-09-02T07:17:42;19.60;40.60
21807;DHT22;11065;50.786;7.840;2022-09-02T07:20:14;19.70;40.50
21807;DHT22;11065;50.786;7.840;2022-09-02T07:22:46;19.90;40.50
21807;DHT22;11065;50.786;7.840;2022-09-02T07:25:20;20.00;40.40
21807;DHT22;11065;50.786;7.840;2022-09-02T07:27:49;20.10;40.30
21807;DHT22;11065;50.786;7.840;2022-09-02T07:30:17;20.30;40.30
21807;DHT22;11065;50.786;7.840;2022-09-02T07:32:47;20.40;40.20
21807;DHT22;11065;50.786;7.840;2022-09-02T07:35:14;20.60;40.20
21807;DHT22;11065;50.786;7.840;2022-09-02T07:37:43;20.70;40.10
21807;DHT22;11065;50.786;7.840;2022-09-02T07:40:10;20.90;40.10
21807;DHT22;11065;50.786;7.840;2022-09-02T07:42:38;21.00;40.00
21807;DHT22;11065;50.786;7.840;2022-09-02T07:45:05;21.10;40.30
21807;DHT22;11065;50.786;7.840;2022-09-02T07:47:35;21.20;39.70
21807;DHT22;11065;50.786;7.840;2022-09-02T07:50:05;21.30;39.60
21807;DHT22;11065;50.786;7.840;2022-09-02T07:52:56;21.50;39.50
21807;DHT22;11065;50.786;7.840;2022-09-02T07:55:25;21.50;39.30
21807;DHT22;11065;50.786;7.840;2022-09-02T07:57:53;21.60;39.20
21807;DHT22;11065;50.786;7.840;2022-09-02T08:00:22;21.70;39.20
21807;DHT22;11065;50.786;7.840;2022-09-02T08:03:01;21.80;39.20
21807;DHT22;11065;50.786;7.840;2022-09-02T08:05:37;21.90;39.10
21807;DHT22;11065;50.786;7.840;2022-09-02T08:08:06;22.10;39.00
21807;DHT22;11065;50.786;7.840;2022-09-02T08:10:34;22.20;39.00
21807;DHT22;11065;50.786;7.840;2022-09-02T08:13:01;22.30;39.00
21807;DHT22;11065;50.786;7.840;2022-09-02T08:15:29;22.50;38.90
21807;DHT22;11065;50.786;7.840;2022-09-02T08:17:56;22.60;38.90
21807;DHT22;11065;50.786;7.840;2022-09-02T08:20:24;22.80;38.90
21807;DHT22;11065;50.786;7.840;2022-09-02T08:22:51;23.00;38.90
21807;DHT22;11065;50.786;7.840;2022-09-02T08:25:36;23.30;38.90
21807;DHT22;11065;50.786;7.840;2022-09-02T08:28:03;23.50;38.60
21807;DHT22;11065;50.786;7.840;2022-09-02T08:30:30;23.70;38.90
21807;DHT22;11065;50.786;7.840;2022-09-02T08:32:57;23.90;38.20
21807;DHT22;11065;50.786;7.840;2022-09-02T08:35:24;24.10;38.20
21807;DHT22;11065;50.786;7.840;2022-09-02T08:37:51;24.50;38.80
21807;DHT22;11065;50.786;7.840;2022-09-02T08:40:21;24.90;39.00
21807;DHT22;11065;50.786;7.840;2022-09-02T08:42:51;25.60;39.50
21807;DHT22;11065;50.786;7.840;2022-09-02T08:45:37;26.40;39.90
21807;DHT22;11065;50.786;7.840;2022-09-02T08:50:49;28.70;39.90
21807;DHT22;11065;50.786;7.840;2022-09-02T08:53:43;29.80;40.30
21807;DHT22;11065;50.786;7.840;2022-09-02T08:56:15;31.10;37.70
21807;DHT22;11065;50.786;7.840;2022-09-02T08:58:50;32.10;38.20
21807;DHT22;11065;50.786;7.840;2022-09-02T09:01:44;33.10;36.90
21807;DHT22;11065;50.786;7.840;2022-09-02T09:04:18;34.20;35.60
21807;DHT22;11065;50.786;7.840;2022-09-02T09:07:10;35.20;35.80
21807;DHT22;11065;50.786;7.840;2022-09-02T09:21:18;40.00;28.90
21807;DHT22;11065;50.786;7.840;2022-09-02T09:23:47;40.60;31.10
21807;DHT22;11065;50.786;7.840;2022-09-02T09:26:22;41.20;30.00
21807;DHT22;11065;50.786;7.840;2022-09-02T09:28:53;41.90;29.20
21807;DHT22;11065;50.786;7.840;2022-09-02T09:31:25;42.40;29.40
21807;DHT22;11065;50.786;7.840;2022-09-02T09:34:10;42.90;28.60
21807;DHT22;11065;50.786;7.840;2022-09-02T09:41:49;44.40;26.90
21807;DHT22;11065;50.786;7.840;2022-09-02T09:44:40;44.70;27.30
21807;DHT22;11065;50.786;7.840;2022-09-02T09:47:23;45.20;26.40
21807;DHT22;11065;50.786;7.840;2022-09-02T09:50:16;45.50;26.60
21807;DHT22;11065;50.786;7.840;2022-09-02T09:52:44;45.90;25.80
21807;DHT22;11065;50.786;7.840;2022-09-02T09:55:17;46.10;26.40
21807;DHT22;11065;50.786;7.840;2022-09-02T09:57:51;46.30;25.70
21807;DHT22;11065;50.786;7.840;2022-09-02T10:00:29;46.50;25.50
21807;DHT22;11065;50.786;7.840;2022-09-02T10:03:04;46.80;24.70
21807;DHT22;11065;50.786;7.840;2022-09-02T10:05:36;47.00;24.70
21807;DHT22;11065;50.786;7.840;2022-09-02T10:11:00;47.10;23.70
21807;DHT22;11065;50.786;7.840;2022-09-02T10:13:32;46.90;23.40
21807;DHT22;11065;50.786;7.840;2022-09-02T10:19:20;46.30;23.30
21807;DHT22;11065;50.786;7.840;2022-09-02T10:27:36;45.40;23.10
21807;DHT22;11065;50.786;7.840;2022-09-02T10:30:20;45.20;22.90
21807;DHT22;11065;50.786;7.840;2022-09-02T10:35:55;44.80;22.80
21807;DHT22;11065;50.786;7.840;2022-09-02T10:41:26;44.20;22.10
21807;DHT22;11065;50.786;7.840;2022-09-02T10:47:15;43.40;22.50
21807;DHT22;11065;50.786;7.840;2022-09-02T11:01:24;42.00;21.80
21807;DHT22;11065;50.786;7.840;2022-09-02T11:06:38;41.70;22.30
21807;DHT22;11065;50.786;7.840;2022-09-02T11:12:01;41.30;21.60
21807;DHT22;11065;50.786;7.840;2022-09-02T11:14:59;41.00;21.70
21807;DHT22;11065;50.786;7.840;2022-09-02T11:18:00;40.80;21.80
21807;DHT22;11065;50.786;7.840;2022-09-02T11:20:29;40.50;21.70
21807;DHT22;11065;50.786;7.840;2022-09-02T11:23:23;40.20;21.80
21807;DHT22;11065;50.786;7.840;2022-09-02T11:26:06;39.90;21.90
21807;DHT22;11065;50.786;7.840;2022-09-02T11:31:45;39.70;21.90
21807;DHT22;11065;50.786;7.840;2022-09-02T11:37:08;39.50;21.50
21807;DHT22;11065;50.786;7.840;2022-09-02T11:39:49;39.30;21.80
21807;DHT22;11065;50.786;7.840;2022-09-02T11:43:03;39.10;22.00
21807;DHT22;11065;50.786;7.840;2022-09-02T11:46:12;39.00;22.10
21807;DHT22;11065;50.786;7.840;2022-09-02T11:54:23;38.90;22.30
21807;DHT22;11065;50.786;7.840;2022-09-02T11:56:57;39.10;22.50
21807;DHT22;11065;50.786;7.840;2022-09-02T12:13:36;39.60;21.90
21807;DHT22;11065;50.786;7.840;2022-09-02T12:21:35;39.70;22.40
21807;DHT22;11065;50.786;7.840;2022-09-02T12:24:19;39.70;22.10
21807;DHT22;11065;50.786;7.840;2022-09-02T12:31:49;39.40;21.90
21807;DHT22;11065;50.786;7.840;2022-09-02T12:47:39;38.50;21.90
21807;DHT22;11065;50.786;7.840;2022-09-02T12:50:11;38.40;22.00
21807;DHT22;11065;50.786;7.840;2022-09-02T12:52:50;38.00;22.00
21807;DHT22;11065;50.786;7.840;2022-09-02T12:55:28;37.70;22.10
21807;DHT22;11065;50.786;7.840;2022-09-02T12:58:07;37.40;22.30
21807;DHT22;11065;50.786;7.840;2022-09-02T13:01:09;37.10;22.20
21807;DHT22;11065;50.786;7.840;2022-09-02T13:06:42;36.80;22.40
21807;DHT22;11065;50.786;7.840;2022-09-02T13:20:52;35.80;22.60
21807;DHT22;11065;50.786;7.840;2022-09-02T13:27:21;35.50;22.90
21807;DHT22;11065;50.786;7.840;2022-09-02T13:32:23;35.80;23.10
21807;DHT22;11065;50.786;7.840;2022-09-02T13:34:53;36.00;23.10
21807;DHT22;11065;50.786;7.840;2022-09-02T13:37:41;36.10;23.10
21807;DHT22;11065;50.786;7.840;2022-09-02T13:40:26;36.10;23.20
21807;DHT22;11065;50.786;7.840;2022-09-02T13:42:56;36.10;23.00
21807;DHT22;11065;50.786;7.840;2022-09-02T13:45:25;36.10;23.10
21807;DHT22;11065;50.786;7.840;2022-09-02T13:48:16;36.10;23.20
21807;DHT22;11065;50.786;7.840;2022-09-02T13:50:48;36.10;23.20
21807;DHT22;11065;50.786;7.840;2022-09-02T13:53:42;36.20;23.20
21807;DHT22;11065;50.786;7.840;2022-09-02T13:56:30;36.10;23.20
21807;DHT22;11065;50.786;7.840;2022-09-02T13:58:57;36.10;23.10
21807;DHT22;11065;50.786;7.840;2022-09-02T14:01:32;36.10;23.20
21807;DHT22;11065;50.786;7.840;2022-09-02T14:04:05;36.10;23.20
21807;DHT22;11065;50.786;7.840;2022-09-02T14:06:41;36.10;23.20
21807;DHT22;11065;50.786;7.840;2022-09-02T14:09:38;36.20;23.30
21807;DHT22;11065;50.786;7.840;2022-09-02T14:12:05;36.30;23.00
21807;DHT22;11065;50.786;7.840;2022-09-02T14:14:33;36.30;23.00
21807;DHT22;11065;50.786;7.840;2022-09-02T14:17:21;36.20;22.90
21807;DHT22;11065;50.786;7.840;2022-09-02T14:19:49;36.20;23.00
21807;DHT22;11065;50.786;7.840;2022-09-02T14:22:30;36.20;23.00
21807;DHT22;11065;50.786;7.840;2022-09-02T14:24:57;36.20;23.00
21807;DHT22;11065;50.786;7.840;2022-09-02T14:27:25;36.20;23.00
21807;DHT22;11065;50.786;7.840;2022-09-02T14:29:56;36.20;23.00
21807;DHT22;11065;50.786;7.840;2022-09-02T14:32:26;36.20;22.90
21807;DHT22;11065;50.786;7.840;2022-09-02T14:35:19;36.20;22.90
21807;DHT22;11065;50.786;7.840;2022-09-02T14:40:33;36.10;22.90
21807;DHT22;11065;50.786;7.840;2022-09-02T14:43:01;36.00;22.90
21807;DHT22;11065;50.786;7.840;2022-09-02T14:45:31;36.00;22.90
21807;DHT22;11065;50.786;7.840;2022-09-02T14:48:00;35.90;22.90
21807;DHT22;11065;50.786;7.840;2022-09-02T14:50:31;35.90;22.90
21807;DHT22;11065;50.786;7.840;2022-09-02T14:53:05;35.90;23.00
21807;DHT22;11065;50.786;7.840;2022-09-02T14:55:52;35.90;23.00
21807;DHT22;11065;50.786;7.840;2022-09-02T14:58:22;35.80;23.00
21807;DHT22;11065;50.786;7.840;2022-09-02T15:00:54;35.90;23.00
21807;DHT22;11065;50.786;7.840;2022-09-02T15:03:22;35.90;23.00
21807;DHT22;11065;50.786;7.840;2022-09-02T15:05:50;35.90;23.10
21807;DHT22;11065;50.786;7.840;2022-09-02T15:08:18;35.80;23.00
21807;DHT22;11065;50.786;7.840;2022-09-02T15:10:45;35.90;23.00
21807;DHT22;11065;50.786;7.840;2022-09-02T15:13:18;35.80;23.00
21807;DHT22;11065;50.786;7.840;2022-09-02T15:15:46;35.80;22.90
21807;DHT22;11065;50.786;7.840;2022-09-02T15:18:16;35.80;22.90
21807;DHT22;11065;50.786;7.840;2022-09-02T15:20:42;35.80;22.80
21807;DHT22;11065;50.786;7.840;2022-09-02T15:23:09;35.80;22.90
21807;DHT22;11065;50.786;7.840;2022-09-02T15:25:36;35.70;22.90
21807;DHT22;11065;50.786;7.840;2022-09-02T15:28:03;35.70;22.80
21807;DHT22;11065;50.786;7.840;2022-09-02T15:30:33;35.60;22.70
21807;DHT22;11065;50.786;7.840;2022-09-02T15:33:04;35.50;22.70
21807;DHT22;11065;50.786;7.840;2022-09-02T15:35:33;35.40;22.70
21807;DHT22;11065;50.786;7.840;2022-09-02T15:38:01;35.30;22.70
21807;DHT22;11065;50.786;7.840;2022-09-02T15:40:29;35.30;22.70
21807;DHT22;11065;50.786;7.840;2022-09-02T15:42:57;35.20;22.60
21807;DHT22;11065;50.786;7.840;2022-09-02T15:45:25;35.20;22.60
21807;DHT22;11065;50.786;7.840;2022-09-02T15:47:56;35.10;22.60
21807;DHT22;11065;50.786;7.840;2022-09-02T15:50:23;35.10;22.60
21807;DHT22;11065;50.786;7.840;2022-09-02T15:52:52;35.00;22.50
21807;DHT22;11065;50.786;7.840;2022-09-02T15:55:21;34.90;22.30
21807;DHT22;11065;50.786;7.840;2022-09-02T15:57:55;34.80;22.40
21807;DHT22;11065;50.786;7.840;2022-09-02T16:00:22;34.70;22.20
21807;DHT22;11065;50.786;7.840;2022-09-02T16:02:54;34.60;22.40
21807;DHT22;11065;50.786;7.840;2022-09-02T16:05:22;34.40;22.50
21807;DHT22;11065;50.786;7.840;2022-09-02T16:07:49;34.40;22.70
21807;DHT22;11065;50.786;7.840;2022-09-02T16:10:17;34.40;22.80
21807;DHT22;11065;50.786;7.840;2022-09-02T16:12:44;34.30;22.70
21807;DHT22;11065;50.786;7.840;2022-09-02T16:15:13;34.20;22.70
21807;DHT22;11065;50.786;7.840;2022-09-02T16:17:40;34.20;22.50
21807;DHT22;11065;50.786;7.840;2022-09-02T16:20:07;34.10;22.60
21807;DHT22;11065;50.786;7.840;2022-09-02T16:22:34;34.10;22.50
21807;DHT22;11065;50.786;7.840;2022-09-02T16:25:01;34.10;22.70
21807;DHT22;11065;50.786;7.840;2022-09-02T16:27:28;34.00;22.50
21807;DHT22;11065;50.786;7.840;2022-09-02T16:30:13;33.90;22.60
21807;DHT22;11065;50.786;7.840;2022-09-02T16:32:40;33.70;22.70
21807;DHT22;11065;50.786;7.840;2022-09-02T16:38:05;33.40;22.40
21807;DHT22;11065;50.786;7.840;2022-09-02T16:40:31;33.40;22.80
21807;DHT22;11065;50.786;7.840;2022-09-02T16:42:58;33.20;22.70
21807;DHT22;11065;50.786;7.840;2022-09-02T16:45:25;33.20;22.80
21807;DHT22;11065;50.786;7.840;2022-09-02T16:47:52;33.00;22.70
21807;DHT22;11065;50.786;7.840;2022-09-02T16:50:19;33.00;22.90
21807;DHT22;11065;50.786;7.840;2022-09-02T16:52:45;32.80;22.80
21807;DHT22;11065;50.786;7.840;2022-09-02T16:55:12;32.70;22.70
21807;DHT22;11065;50.786;7.840;2022-09-02T16:57:44;32.60;22.80
21807;DHT22;11065;50.786;7.840;2022-09-02T17:00:11;32.50;22.90
21807;DHT22;11065;50.786;7.840;2022-09-02T17:02:38;32.40;23.00
21807;DHT22;11065;50.786;7.840;2022-09-02T17:05:06;32.30;23.00
21807;DHT22;11065;50.786;7.840;2022-09-02T17:07:35;32.20;23.10
21807;DHT22;11065;50.786;7.840;2022-09-02T17:10:03;32.10;23.20
21807;DHT22;11065;50.786;7.840;2022-09-02T17:12:30;32.00;23.10
21807;DHT22;11065;50.786;7.840;2022-09-02T17:14:56;31.90;23.00
21807;DHT22;11065;50.786;7.840;2022-09-02T17:17:23;31.80;23.00
21807;DHT22;11065;50.786;7.840;2022-09-02T17:19:50;31.60;23.00
21807;DHT22;11065;50.786;7.840;2022-09-02T17:22:17;31.50;23.00
21807;DHT22;11065;50.786;7.840;2022-09-02T17:24:44;31.40;23.30
21807;DHT22;11065;50.786;7.840;2022-09-02T17:27:15;31.30;23.30
21807;DHT22;11065;50.786;7.840;2022-09-02T17:29:41;31.10;23.40
21807;DHT22;11065;50.786;7.840;2022-09-02T17:32:16;31.00;23.40
21807;DHT22;11065;50.786;7.840;2022-09-02T17:34:43;30.90;23.60
21807;DHT22;11065;50.786;7.840;2022-09-02T17:37:10;30.80;23.50
21807;DHT22;11065;50.786;7.840;2022-09-02T17:39:37;30.70;23.50
21807;DHT22;11065;50.786;7.840;2022-09-02T17:42:04;30.50;23.40
21807;DHT22;11065;50.786;7.840;2022-09-02T17:44:37;30.40;23.40
21807;DHT22;11065;50.786;7.840;2022-09-02T17:47:17;30.20;23.50
21807;DHT22;11065;50.786;7.840;2022-09-02T17:49:46;30.10;23.50
21807;DHT22;11065;50.786;7.840;2022-09-02T17:52:18;29.90;23.50
21807;DHT22;11065;50.786;7.840;2022-09-02T17:54:48;29.70;23.60
21807;DHT22;11065;50.786;7.840;2022-09-02T18:05:16;28.90;23.80
21807;DHT22;11065;50.786;7.840;2022-09-02T18:08:05;28.80;24.00
21807;DHT22;11065;50.786;7.840;2022-09-02T18:10:45;28.60;24.30
21807;DHT22;11065;50.786;7.840;2022-09-02T18:13:16;28.40;24.20
21807;DHT22;11065;50.786;7.840;2022-09-02T18:18:23;28.00;24.90
21807;DHT22;11065;50.786;7.840;2022-09-02T18:21:04;27.80;24.40